< < Back
Terminal Aerodrome Forecast


Current Version              Previous Versions:   1  2  3  4  5  6  7  8  9  

Terminal Aerodrome Forecast

524
FTUS44 KMRX 271124
TAFTYS
TAF
KTYS 271124Z 2712/2812 06003KT P6SM FEW050 SCT250=

Latest METAR

899
SAUS80 KWBC 280000 RRB
MTRTYS
METAR KTYS 272353Z 06003KT 10SM FEW060 SCT110 23/20 A3011 RMK AO2 SLP187
60010 T02330200 10361 20228 53009


USA.gov is the U.S. government's official web portal to all federal, state and local government web resources and services.